Terminal Aerodrome Forecast
Issued by NWS

Home | Current Version | Previous Version | Text Only | Print | Product List | Glossary On
Versions: 1 2 3 4 5 6 7 8 9 10 11 12 13 14 15 16 17 18 19 20 21 22 23 24
000
FTUS46 KMTR 071142
TAFSTS
TAF
KSTS 071142Z 0712/0812 VRB03KT 3SM BR SCT001
      TEMPO 0712/0715 1/2SM FG VV001
     FM071600 VRB03KT 6SM BR SKC WS020/04030KT
     FM072000 VRB04KT P6SM SKC WS020/04030KT
     FM080300 VRB03KT P6SM SKC=

USA.gov is the U.S. government's official web portal to all federal, state and local government web resources and services.